LFRBLFRQ

Guest
Details From LFRB - Brest Bretagne
To LFRQ - Quimper Pluguffan
Flight Number -
Tags generated
Created
Modified
Stats Distance 30 nm / 56 km
Max Altitude 0 ft / 0 m
Waypoints 2
Social Downloads 2
Likes 0
Share VATSIM

Download

Looking for another format? Having issues loading an existing format? Contact us
Advertisement - Login to hide

Notes

Basic altitude profile: - Ascent Rate: 900ft/min - Ascent Speed: 120kts - Cruise Altitude: 4000ft - Cruise Speed: 180kts - Descent Rate: 500ft/min - Descent Speed: 120kts Options: - Use NATs: yes - Use PACOTS: yes - Use low airways: yes - Use high airways: no

Route

LFRB LFRQ

ID Type Via Altitude Latitude Longitude Leg Dist Tot Dist Heading (true) Name
O LFRB APT - 0 ft / 0 m 48.44938˚ -4.41823˚ - 0 nm - Brest Bretagne
O LFRQ APT - 0 ft / 0 m 47.97278˚ -4.17156˚ 30 nm 30 nm 161° / 161° Quimper Pluguffan

Altitude Profile

Advertisement - Login to hide

LFRB

Details ICAO LFRB (BES)
Name Brest Bretagne
Region France
Timezone Europe/Paris (UTC+1.0)
Stats Elevation 325 ft / 99 m (AMSL)
Location 48.449376° -4.418232°
Runways 2
Magnetic Variation 1.575° W

METAR

LFRB 170030Z AUTO 29005KT 9999 FEW028 SCT033 OVC096 07/05 Q1027 NOSIG

Decode

TAF

TAF LFRB 162300Z 1700/1806 32006KT 9999 SCT025 BKN045 BECMG 1712/1715 24010KT 4000 -RA BECMG 1715/1718 BKN013 TEMPO 1720/1806 2000 DZRA OVC006

Decode

Departure Runways

ID Width Length Bearing (true) Bearing (mag) Surface Threshold Offset Overrun Length
07L 62 ft / 19 m 2,518 ft / 768 m 71.21° 72.79° Asphalt 131 ft / 40 m 0 ft / 0 m
07R 148 ft / 45 m 10,153 ft / 3,095 m 71.16° 72.74° Asphalt 0 ft / 0 m 0 ft / 0 m
25L 148 ft / 45 m 10,153 ft / 3,095 m 251.19° 252.77° Asphalt 984 ft / 300 m 0 ft / 0 m
25R 62 ft / 19 m 2,518 ft / 768 m 251.22° 252.80° Asphalt 112 ft / 34 m 0 ft / 0 m

LFRQ

Details ICAO LFRQ (UIP)
Name Quimper Pluguffan
Region France
Timezone Europe/Paris (UTC+1.0)
Stats Elevation 297 ft / 91 m (AMSL)
Location 47.972777° -4.171559°
Runways 2
Magnetic Variation 1.434° W

METAR

LFRQ 170030Z AUTO 30008KT CAVOK 08/05 Q1027

Decode

TAF

Not found

Destination Runways

ID Width Length Bearing (true) Bearing (mag) Surface Threshold Offset Overrun Length
04 148 ft / 45 m 3,632 ft / 1,107 m 32.51° 33.94° Asphalt 1,148 ft / 350 m 0 ft / 0 m
10 148 ft / 45 m 7,035 ft / 2,144 m 93.49° 94.92° Asphalt 344 ft / 105 m 197 ft / 60 m
22 148 ft / 45 m 3,632 ft / 1,107 m 212.52° 213.95° Asphalt 0 ft / 0 m 0 ft / 0 m
28 148 ft / 45 m 7,035 ft / 2,144 m 273.51° 274.94° Asphalt 0 ft / 0 m 0 ft / 0 m

Approach Navaids

Runway Type Ident Frequency Range Bearing (true) Bearing (mag) Slope Elevation
28 Localiser QR 110.30 MHz 18 nm / 33 km 273.51° 274.95° - 295 ft / 90 m (AMSL)
28 Glidescope QR 110.30 MHz 10 nm / 19 km 273.50° 274.94° 3.00° 295 ft / 90 m (AMSL)
28 DME QR 110.30 MHz 18 nm / 33 km - - - 332 ft / 101 m (AMSL)

Popular Alternatives